Time;durP1;ratioP1;P1;durP2;ratioP2;P2;SDS_P1;SDS_P2;PMS_P1;PMS_P2;Temp;Humidity;BMP_temperature;BMP_pressure;BME280_temperature;BME280_humidity;BME280_pressure;Samples;Min_cycle;Max_cycle;Signal;HPM_P1;HPM_P2
2023/09/10 00:02:18;;;;;;;22.10;18.30;;;;;;;-146.27;78.99;80163.06;5050367;28;20377;-66
2023/09/10 00:04:43;;;;;;;21.25;18.55;;;;;;;-146.27;78.78;80177.13;5036993;28;20131;-66
2023/09/10 00:07:08;;;;;;;23.40;18.38;;;;;;;-146.27;78.77;80189.16;5036987;28;20040;-66
2023/09/10 00:09:34;;;;;;;21.85;18.02;;;;;;;-146.27;78.87;80195.19;5038132;28;20021;-66
2023/09/10 00:11:59;;;;;;;19.48;17.08;;;;;;;-146.27;78.60;80239.34;5036356;28;20032;-66
2023/09/10 00:14:24;;;;;;;26.17;18.13;;;;;;;-146.27;79.06;80213.25;5039200;28;20045;-67
2023/09/10 00:16:50;;;;;;;25.63;18.38;;;;;;;-146.27;78.59;80195.19;5040341;28;20358;-66
2023/09/10 00:19:15;;;;;;;24.33;18.83;;;;;;;-146.27;78.61;80207.22;5040455;28;20171;-67
2023/09/10 00:21:41;;;;;;;21.63;17.35;;;;;;;-146.27;78.57;80205.22;5042639;28;20041;-67
2023/09/10 00:24:08;;;;;;;23.60;18.15;;;;;;;-146.27;78.95;80277.50;5051980;28;20029;-66
2023/09/10 00:26:34;;;;;;;20.42;16.95;;;;;;;-146.27;78.76;80235.34;5032720;28;20032;-66
2023/09/10 00:29:00;;;;;;;19.88;16.83;;;;;;;-146.27;78.91;80243.38;5041415;28;20021;-66
2023/09/10 00:31:25;;;;;;;25.33;16.98;;;;;;;-146.27;78.97;80281.53;5035383;28;20087;-66
2023/09/10 00:33:50;;;;;;;19.70;17.08;;;;;;;-146.27;79.50;80259.44;5044724;28;20025;-66
2023/09/10 00:36:16;;;;;;;23.60;17.08;;;;;;;-146.27;79.14;80259.44;5048400;28;20037;-66
2023/09/10 00:38:41;;;;;;;21.40;16.95;;;;;;;-146.27;78.85;80281.53;5045404;28;20092;-66
2023/09/10 00:41:07;;;;;;;22.40;17.13;;;;;;;-146.27;79.63;80259.44;5033571;28;20041;-66
2023/09/10 00:43:34;;;;;;;19.10;16.92;;;;;;;-146.27;79.86;80285.53;5042470;28;20043;-66
2023/09/10 00:45:59;;;;;;;22.02;17.73;;;;;;;-146.27;79.19;80279.50;5040464;28;20429;-66
2023/09/10 00:48:25;;;;;;;26.23;18.02;;;;;;;-146.27;79.21;80313.66;5039728;28;20132;-67
2023/09/10 00:50:51;;;;;;;21.60;18.30;;;;;;;-146.27;79.61;80307.63;5040312;28;20090;-66
2023/09/10 00:53:18;;;;;;;25.83;18.52;;;;;;;-146.27;79.39;80313.66;5039816;28;20488;-65
2023/09/10 00:55:46;;;;;;;19.33;17.02;;;;;;;-146.27;79.53;80333.72;5037287;28;23316;-69
2023/09/10 00:58:11;;;;;;;21.77;18.27;;;;;;;-146.27;79.55;80309.63;5036501;28;20080;-68
2023/09/10 01:00:37;;;;;;;20.00;17.38;;;;;;;-146.27;79.47;80331.72;5037396;28;20037;-68
2023/09/10 01:03:05;;;;;;;20.95;17.42;;;;;;;-146.27;79.42;80315.66;5040406;28;20104;-68
2023/09/10 01:05:32;;;;;;;23.63;18.50;;;;;;;-146.27;79.72;80315.66;5033928;28;20057;-68
2023/09/10 01:07:58;;;;;;;22.98;18.08;;;;;;;-146.27;79.60;80391.94;5035689;28;20035;-68
2023/09/10 01:10:29;;;;;;;26.80;19.15;;;;;;;-146.27;79.61;80355.81;5048096;28;20482;-69
2023/09/10 01:13:00;;;;;;;21.98;17.83;;;;;;;-146.27;79.74;80351.78;5035834;28;20493;-68
2023/09/10 01:15:34;;;;;;;29.63;18.27;;;;;;;-146.27;80.02;80375.88;5043996;28;20060;-67
2023/09/10 01:18:16;;;;;;;23.60;18.58;;;;;;;-146.27;79.72;80371.88;5035620;28;20345;-67
2023/09/10 01:20:49;;;;;;;23.33;19.35;;;;;;;-146.27;79.86;80391.94;5032552;28;20096;-68
2023/09/10 01:23:38;;;;;;;22.08;17.90;;;;;;;-146.27;79.81;80414.03;5041040;28;20029;-67
2023/09/10 01:26:03;;;;;;;20.88;18.38;;;;;;;-146.27;80.27;80387.94;5039914;28;20029;-68
2023/09/10 01:28:29;;;;;;;28.85;19.85;;;;;;;-146.27;79.93;80391.94;5034138;28;20026;-67
2023/09/10 01:30:54;;;;;;;25.90;19.85;;;;;;;-146.27;79.99;80418.06;5042932;28;20436;-67
2023/09/10 01:33:35;;;;;;;22.92;18.92;;;;;;;-146.27;80.18;80420.06;5039322;28;20040;-68
2023/09/10 01:36:09;;;;;;;25.15;19.90;;;;;;;-146.27;79.90;80430.09;5048314;28;20029;-68
2023/09/10 01:38:47;;;;;;;28.48;19.83;;;;;;;-146.27;80.39;80424.06;5049696;28;20036;-68
2023/09/10 01:41:15;;;;;;;23.52;19.45;;;;;;;-146.27;79.85;80395.97;5046920;28;20033;-67
2023/09/10 01:43:41;;;;;;;25.58;20.15;;;;;;;-146.27;80.34;80426.09;5034292;28;20040;-67
2023/09/10 01:46:08;;;;;;;22.60;19.73;;;;;;;-146.27;80.07;80420.06;5042535;28;20033;-68
2023/09/10 01:48:34;;;;;;;27.00;19.33;;;;;;;-146.27;80.32;80404.00;5044323;28;20033;-68
2023/09/10 01:50:59;;;;;;;22.33;18.58;;;;;;;-146.27;79.87;80408.00;5045593;28;20031;-67
2023/09/10 01:53:24;;;;;;;23.80;20.20;;;;;;;-146.27;79.64;80444.16;5040651;28;20040;-68
2023/09/10 01:55:50;;;;;;;23.30;19.42;;;;;;;-146.27;79.76;80404.00;5031973;28;20669;-67
2023/09/10 01:58:15;;;;;;;24.88;20.25;;;;;;;-146.27;79.89;80361.84;5032067;28;20093;-67
2023/09/10 02:00:46;;;;;;;23.30;19.38;;;;;;;-146.27;79.60;80381.91;5040086;28;20457;-68
2023/09/10 02:03:12;;;;;;;22.30;18.48;;;;;;;-146.27;79.77;80387.94;5034276;28;20063;-68
2023/09/10 02:05:37;;;;;;;22.50;18.17;;;;;;;-146.27;79.93;80408.00;5031916;28;20552;-68
2023/09/10 02:08:04;;;;;;;25.73;19.20;;;;;;;-146.27;79.93;80399.97;5043691;28;20022;-67
2023/09/10 02:10:32;;;;;;;25.67;19.48;;;;;;;-146.27;79.36;80399.97;5050109;28;20032;-68
2023/09/10 02:12:57;;;;;;;25.02;19.55;;;;;;;-146.27;79.46;80351.78;5051544;28;20036;-68
2023/09/10 02:15:23;;;;;;;26.23;20.15;;;;;;;-146.27;79.36;80389.94;5046073;28;20057;-68
2023/09/10 02:17:48;;;;;;;23.23;18.90;;;;;;;-146.27;79.55;80375.88;5033639;28;20061;-68
2023/09/10 02:20:14;;;;;;;23.83;19.35;;;;;;;-146.27;79.70;80357.81;5046159;28;20133;-67
2023/09/10 02:22:40;;;;;;;26.48;19.80;;;;;;;-146.27;79.75;80373.88;5034256;28;20083;-67
2023/09/10 02:25:07;;;;;;;22.10;18.73;;;;;;;-146.27;79.53;80428.09;5038725;28;20032;-68
2023/09/10 02:27:35;;;;;;;21.70;18.70;;;;;;;-146.27;79.63;80381.91;5036945;28;20052;-67
2023/09/10 02:30:01;;;;;;;24.45;19.02;;;;;;;-146.27;79.78;80424.06;5038841;28;20049;-67
2023/09/10 02:32:26;;;;;;;22.63;18.52;;;;;;;-146.27;79.79;80369.88;5034635;28;20064;-67
2023/09/10 02:34:51;;;;;;;22.17;19.02;;;;;;;-146.27;79.53;80395.97;5035065;28;20028;-68
2023/09/10 02:37:17;;;;;;;22.65;18.90;;;;;;;-146.27;79.54;80387.94;5034238;28;20033;-67
2023/09/10 02:39:43;;;;;;;23.33;18.15;;;;;;;-146.27;79.43;80387.94;5032637;28;20024;-68
2023/09/10 02:42:08;;;;;;;22.30;18.85;;;;;;;-146.27;79.54;80412.03;5038655;28;20040;-68
2023/09/10 02:44:34;;;;;;;24.08;19.73;;;;;;;-146.27;79.23;80381.91;5046319;28;20032;-67
2023/09/10 02:46:59;;;;;;;26.15;18.75;;;;;;;-146.27;79.23;80424.06;5031319;28;20076;-68
2023/09/10 02:49:24;;;;;;;24.50;17.92;;;;;;;-146.27;79.28;80404.00;5047521;28;20029;-67
2023/09/10 02:51:50;;;;;;;20.55;17.77;;;;;;;-146.27;79.39;80408.00;5035416;28;20029;-68
2023/09/10 02:54:16;;;;;;;25.88;19.15;;;;;;;-146.27;79.17;80436.13;5044384;28;20025;-68
2023/09/10 02:56:41;;;;;;;21.25;17.60;;;;;;;-146.27;79.41;80500.38;5038024;28;20024;-68
2023/09/10 02:59:07;;;;;;;24.42;18.90;;;;;;;-146.27;79.17;80434.13;5032113;28;20029;-67
2023/09/10 03:01:32;;;;;;;22.00;18.05;;;;;;;-146.27;78.92;80391.94;5036017;28;20025;-68
2023/09/10 03:03:57;;;;;;;23.65;18.98;;;;;;;-146.27;79.29;80416.03;5037536;28;20404;-68
2023/09/10 03:06:23;;;;;;;20.90;18.13;;;;;;;-146.27;79.36;80476.28;5041236;28;20661;-68
2023/09/10 03:08:48;;;;;;;27.42;17.98;;;;;;;-146.27;79.28;80446.16;5038323;28;20024;-67
2023/09/10 03:11:14;;;;;;;25.90;19.10;;;;;;;-146.27;79.53;80496.34;5043998;28;20063;-68
2023/09/10 03:13:39;;;;;;;22.27;18.35;;;;;;;-146.27;79.44;80514.44;5041654;28;20029;-68
2023/09/10 03:16:05;;;;;;;26.42;18.20;;;;;;;-146.27;79.59;80498.38;5035749;28;20508;-67
2023/09/10 03:18:30;;;;;;;26.00;18.65;;;;;;;-146.27;79.72;80490.34;5038097;28;20028;-68
2023/09/10 03:20:55;;;;;;;26.27;19.15;;;;;;;-146.27;79.78;80504.38;5030295;28;20441;-68
2023/09/10 03:23:21;;;;;;;26.30;19.10;;;;;;;-146.27;79.75;80532.50;5040738;28;20029;-67
2023/09/10 03:25:46;;;;;;;22.42;18.58;;;;;;;-146.27;79.94;80474.28;5036807;28;20051;-67
2023/09/10 03:28:12;;;;;;;27.10;20.45;;;;;;;-146.27;79.57;80494.34;5033980;28;20039;-68
2023/09/10 03:30:37;;;;;;;21.95;19.40;;;;;;;-146.27;79.31;80514.44;5041011;28;20063;-68
2023/09/10 03:33:03;;;;;;;26.35;20.17;;;;;;;-146.27;79.25;80498.38;5033595;28;20496;-68
2023/09/10 03:35:28;;;;;;;25.98;19.88;;;;;;;-146.27;79.44;80484.31;5046014;28;20095;-67
2023/09/10 03:37:53;;;;;;;29.02;20.73;;;;;;;-146.27;79.65;80462.22;5030207;28;20017;-68
2023/09/10 03:40:19;;;;;;;23.00;19.98;;;;;;;-146.27;79.61;80500.38;5044543;28;20048;-68
2023/09/10 03:42:44;;;;;;;26.92;20.20;;;;;;;-146.27;80.01;80524.47;5049916;28;20104;-67
2023/09/10 03:45:10;;;;;;;28.30;21.48;;;;;;;-146.27;79.50;80510.41;5049082;28;20059;-68
2023/09/10 03:47:37;;;;;;;39.45;21.75;;;;;;;-146.27;79.71;80540.53;5036290;28;20389;-66
2023/09/10 03:50:03;;;;;;;30.90;22.25;;;;;;;-146.27;79.90;80506.41;5044528;28;20112;-67
2023/09/10 03:52:28;;;;;;;29.45;23.08;;;;;;;-146.27;79.29;80508.41;5030091;28;20501;-67
2023/09/10 03:54:54;;;;;;;26.10;21.05;;;;;;;-146.27;79.65;80496.34;5042583;28;20053;-67
2023/09/10 03:57:19;;;;;;;24.02;21.33;;;;;;;-146.27;79.47;80492.34;5046720;28;20640;-67
2023/09/10 03:59:45;;;;;;;33.92;22.55;;;;;;;-146.27;79.23;80486.31;5035409;28;20041;-67
2023/09/10 04:02:11;;;;;;;28.88;23.05;;;;;;;-146.27;79.44;80514.44;5036277;28;20029;-67
2023/09/10 04:04:37;;;;;;;27.25;22.42;;;;;;;-146.27;79.11;80480.28;5045390;28;20476;-67
2023/09/10 04:07:02;;;;;;;27.15;22.42;;;;;;;-146.27;79.50;80494.34;5040470;28;21973;-68
2023/09/10 04:09:29;;;;;;;31.75;22.88;;;;;;;-146.27;79.22;80512.41;5049258;28;20035;-67
2023/09/10 04:11:54;;;;;;;30.05;23.67;;;;;;;-146.27;79.73;80534.50;5057216;28;20059;-67
2023/09/10 04:14:20;;;;;;;30.10;22.98;;;;;;;-146.27;79.77;80564.63;5047574;28;20052;-67
2023/09/10 04:16:46;;;;;;;26.60;23.35;;;;;;;-146.27;79.92;80548.56;5047793;28;20029;-67
2023/09/10 04:19:11;;;;;;;36.03;24.23;;;;;;;-146.27;80.41;80534.50;5047166;28;20389;-67
2023/09/10 04:21:36;;;;;;;30.60;23.70;;;;;;;-146.27;80.26;80524.47;5030181;28;20021;-67
2023/09/10 04:24:02;;;;;;;30.73;25.17;;;;;;;-146.27;80.04;80540.53;5039651;28;20025;-67
2023/09/10 04:26:27;;;;;;;32.63;23.77;;;;;;;-146.27;80.04;80528.47;5037675;28;20029;-67
2023/09/10 04:28:53;;;;;;;33.50;23.63;;;;;;;-146.27;80.15;80558.59;5043164;28;20033;-66
2023/09/10 04:31:18;;;;;;;30.40;23.13;;;;;;;-146.27;80.55;80524.47;5042493;28;20118;-66
2023/09/10 04:33:44;;;;;;;27.55;23.00;;;;;;;-146.27;80.00;80566.63;5038862;28;20036;-66
2023/09/10 04:36:09;;;;;;;33.35;24.95;;;;;;;-146.27;80.26;80568.63;5044584;28;20028;-66
2023/09/10 04:38:35;;;;;;;37.72;25.40;;;;;;;-146.27;80.17;80582.69;5042410;28;20024;-67
2023/09/10 04:41:01;;;;;;;30.08;24.73;;;;;;;-146.27;80.86;80570.66;5049453;28;20044;-66
2023/09/10 04:43:26;;;;;;;40.05;26.90;;;;;;;-146.27;80.57;80564.63;5039892;28;20036;-67
2023/09/10 04:45:52;;;;;;;31.15;25.23;;;;;;;-146.27;80.75;80588.72;5042728;28;20041;-67
2023/09/10 04:48:17;;;;;;;34.85;27.13;;;;;;;-146.27;80.89;80596.75;5038841;28;20052;-67
2023/09/10 04:50:43;;;;;;;36.38;25.90;;;;;;;-146.27;80.90;80640.94;5045062;28;20033;-66
2023/09/10 04:53:10;;;;;;;33.50;27.27;;;;;;;-146.27;81.51;80646.94;5047678;28;20067;-67
2023/09/10 04:55:35;;;;;;;35.90;26.45;;;;;;;-146.27;81.75;80691.13;5039855;28;20034;-67
2023/09/10 04:58:01;;;;;;;33.88;26.13;;;;;;;-146.27;81.48;80657.00;5040881;28;20033;-66
2023/09/10 05:00:26;;;;;;;35.28;26.38;;;;;;;-146.27;81.63;80634.91;5043485;28;20029;-66
2023/09/10 05:02:52;;;;;;;37.25;26.30;;;;;;;-146.27;81.76;80665.03;5038910;28;20063;-66
2023/09/10 05:05:17;;;;;;;37.33;27.25;;;;;;;-146.27;81.76;80594.75;5032874;28;20095;-66
2023/09/10 05:07:43;;;;;;;33.78;27.98;;;;;;;-146.27;81.46;80636.91;5035787;28;20060;-67
2023/09/10 05:10:10;;;;;;;40.75;30.13;;;;;;;-146.27;81.10;80673.06;5036644;28;20028;-67
2023/09/10 05:12:35;;;;;;;39.42;30.85;;;;;;;-146.27;81.41;80618.84;5031801;28;20049;-67
2023/09/10 05:15:00;;;;;;;38.28;28.52;;;;;;;-146.27;81.39;80592.72;5041559;28;20103;-66
2023/09/10 05:17:26;;;;;;;39.85;30.50;;;;;;;-146.27;80.86;80600.75;5041610;28;20032;-66
2023/09/10 05:19:51;;;;;;;40.28;31.10;;;;;;;-146.27;80.64;80558.59;5044491;28;20031;-67
2023/09/10 05:22:16;;;;;;;40.75;30.40;;;;;;;-146.27;80.60;80582.69;5047354;28;20426;-66
2023/09/10 05:24:42;;;;;;;37.83;30.05;;;;;;;-146.27;80.85;80570.66;5046711;28;20025;-66
2023/09/10 05:27:07;;;;;;;42.75;30.65;;;;;;;-146.27;80.77;80576.66;5039420;28;20033;-66
2023/09/10 05:29:32;;;;;;;43.13;31.17;;;;;;;-146.27;80.94;80584.69;5043060;28;20395;-66
2023/09/10 05:31:58;;;;;;;41.22;31.85;;;;;;;-146.27;80.52;80584.69;5041767;28;20029;-67
2023/09/10 05:34:23;;;;;;;39.38;30.27;;;;;;;-146.27;81.21;80584.69;5049516;28;20037;-67
2023/09/10 05:36:50;;;;;;;41.70;31.33;;;;;;;-146.27;81.23;80600.75;5049541;28;20107;-66
2023/09/10 05:39:16;;;;;;;45.38;31.67;;;;;;;-146.27;81.41;80610.81;5043622;28;20017;-66
2023/09/10 05:41:41;;;;;;;38.70;30.58;;;;;;;-146.27;81.63;80644.94;5032460;28;20116;-66
2023/09/10 05:44:07;;;;;;;38.58;31.85;;;;;;;-146.27;81.50;80632.91;5034557;28;20055;-67
2023/09/10 05:46:33;;;;;;;41.40;31.60;;;;;;;-146.27;82.07;80628.88;5040772;28;20140;-67
2023/09/10 05:48:58;;;;;;;43.22;32.20;;;;;;;-146.27;81.86;80624.88;5040551;28;20067;-67
2023/09/10 05:51:24;;;;;;;39.85;33.97;;;;;;;-146.27;81.99;80636.91;5034778;28;20084;-67
2023/09/10 05:53:49;;;;;;;46.40;34.90;;;;;;;-146.27;81.82;80624.88;5037606;28;20033;-67
2023/09/10 05:56:14;;;;;;;41.28;32.85;;;;;;;-146.27;81.95;80614.81;5038839;28;20024;-66
2023/09/10 05:58:40;;;;;;;41.80;31.98;;;;;;;-146.27;81.77;80572.66;5049502;28;20040;-67
2023/09/10 06:01:05;;;;;;;42.80;32.75;;;;;;;-146.27;81.03;80570.66;5032957;28;20026;-67
2023/09/10 06:03:31;;;;;;;47.00;32.08;;;;;;;-146.27;81.75;80562.63;5046508;28;20037;-67
2023/09/10 06:05:58;;;;;;;39.85;32.03;;;;;;;-146.27;81.75;80546.56;5031684;28;20646;-66
2023/09/10 06:08:23;;;;;;;41.38;32.75;;;;;;;-146.27;81.99;80568.63;5046691;28;20540;-67
2023/09/10 06:10:49;;;;;;;45.17;32.83;;;;;;;-146.27;81.63;80548.56;5049393;28;20116;-67
2023/09/10 06:13:14;;;;;;;41.90;33.58;;;;;;;-146.27;81.24;80518.44;5040298;28;20520;-67
2023/09/10 06:15:40;;;;;;;41.00;32.63;;;;;;;-146.27;81.27;80548.56;5050571;28;20075;-67
2023/09/10 06:18:05;;;;;;;42.65;33.28;;;;;;;-146.27;81.48;80526.47;5042710;28;20021;-67
2023/09/10 06:20:31;;;;;;;49.35;32.75;;;;;;;-146.27;80.99;80492.34;5070216;28;20028;-67
2023/09/10 06:22:57;;;;;;;46.40;32.85;;;;;;;-146.27;80.69;80472.25;5057543;28;20064;-67
2023/09/10 06:25:23;;;;;;;42.60;32.05;;;;;;;-146.27;81.25;80468.25;5044589;28;20037;-67
2023/09/10 06:27:49;;;;;;;43.33;31.85;;;;;;;-146.27;81.06;80498.38;5037142;28;20087;-67
2023/09/10 06:30:15;;;;;;;43.22;32.95;;;;;;;-146.27;80.58;80420.06;5038992;28;20029;-67
2023/09/10 06:32:40;;;;;;;37.70;30.48;;;;;;;-146.27;81.19;80412.03;5036130;28;20115;-66
2023/09/10 06:35:05;;;;;;;50.08;32.47;;;;;;;-146.27;81.24;80412.03;5035336;28;20110;-67
2023/09/10 06:37:32;;;;;;;43.42;31.73;;;;;;;-146.27;80.62;80399.97;5037061;28;20037;-67
2023/09/10 06:39:58;;;;;;;43.20;32.78;;;;;;;-146.27;80.56;80373.88;5033845;28;20021;-67
2023/09/10 06:42:23;;;;;;;43.45;32.95;;;;;;;-146.27;80.53;80363.84;5038888;28;20098;-68
2023/09/10 06:44:48;;;;;;;43.75;31.88;;;;;;;-146.27;80.62;80387.94;5031792;28;20470;-68
2023/09/10 06:47:14;;;;;;;47.40;33.88;;;;;;;-146.27;80.27;80365.84;5032230;28;20064;-68
2023/09/10 06:49:39;;;;;;;44.70;34.22;;;;;;;-146.27;80.15;80333.72;5033287;28;20075;-68
2023/09/10 06:52:05;;;;;;;44.67;33.85;;;;;;;-146.27;79.98;80307.63;5045579;28;20029;-68
2023/09/10 06:54:32;;;;;;;43.22;31.73;;;;;;;-146.27;79.66;80331.72;5042799;28;20036;-68
2023/09/10 06:57:00;;;;;;;42.13;32.80;;;;;;;-146.27;79.64;80335.72;5048416;28;20025;-67
2023/09/10 06:59:27;;;;;;;49.65;33.60;;;;;;;-146.27;80.32;80321.69;5035982;28;20832;-67
2023/09/10 07:01:52;;;;;;;46.90;34.83;;;;;;;-146.27;79.67;80303.59;5044926;28;20063;-68
2023/09/10 07:04:22;;;;;;;42.08;33.00;;;;;;;-146.27;79.76;80269.47;5043097;28;20051;-67
2023/09/10 07:06:49;;;;;;;48.15;34.55;;;;;;;-146.27;79.80;80277.50;5038501;28;20718;-68
2023/09/10 07:09:22;;;;;;;34.40;26.40;;;;;;;-146.27;79.81;80235.34;5047678;28;20056;-67
2023/09/10 07:11:48;;;;;;;43.72;33.40;;;;;;;-146.27;79.48;80255.41;5029377;28;20279;-68
2023/09/10 07:14:13;;;;;;;42.85;33.28;;;;;;;-146.27;79.52;80211.25;5039589;28;20048;-66
2023/09/10 07:16:39;;;;;;;46.17;34.00;;;;;;;-146.27;79.43;80179.13;5033753;28;20819;-68
2023/09/10 07:19:04;;;;;;;44.70;33.25;;;;;;;-146.27;79.42;80219.28;5039122;28;20021;-68
2023/09/10 07:21:29;;;;;;;42.53;33.92;;;;;;;-146.27;79.12;80167.09;5049355;28;20090;-67
2023/09/10 07:23:55;;;;;;;42.75;29.73;;;;;;;-146.27;78.95;80207.22;5037387;28;20028;-67
2023/09/10 07:26:21;;;;;;;49.22;32.70;;;;;;;-146.27;78.79;80187.16;5048184;28;20021;-67
2023/09/10 07:28:46;;;;;;;45.92;32.85;;;;;;;-146.27;78.95;80151.03;5036074;28;20112;-67
2023/09/10 07:31:11;;;;;;;48.53;33.97;;;;;;;-146.27;79.01;80143.00;5038398;28;20469;-67
2023/09/10 07:33:37;;;;;;;44.88;34.38;;;;;;;-146.27;78.75;80159.06;5039629;28;20120;-68
2023/09/10 07:36:02;;;;;;;43.15;31.20;;;;;;;-146.27;78.64;80078.75;5051400;28;20025;-67
2023/09/10 07:38:28;;;;;;;43.97;33.53;;;;;;;-146.27;78.87;80108.84;5039616;28;20040;-68
2023/09/10 07:40:54;;;;;;;40.40;31.60;;;;;;;-146.27;78.71;80070.72;5040273;28;20028;-67
2023/09/10 07:43:22;;;;;;;41.38;32.17;;;;;;;-146.27;78.69;80014.50;5036876;28;20060;-66
2023/09/10 07:45:48;;;;;;;41.67;31.85;;;;;;;-146.27;78.54;79986.41;5040126;28;20032;-66
2023/09/10 07:48:14;;;;;;;43.38;30.90;;;;;;;-146.27;78.60;80020.53;5046644;28;20396;-69
2023/09/10 07:50:40;;;;;;;39.28;31.77;;;;;;;-146.27;78.65;79946.25;5036599;28;20047;-66
2023/09/10 07:53:05;;;;;;;38.22;30.60;;;;;;;-146.27;78.19;79910.09;5038785;28;20048;-68
2023/09/10 07:55:31;;;;;;;43.20;32.17;;;;;;;-146.27;78.61;79926.16;5033142;28;20489;-69
2023/09/10 07:57:56;;;;;;;52.35;34.53;;;;;;;-146.27;78.00;79831.81;5058847;28;20083;-69
2023/09/10 08:00:22;;;;;;;42.45;34.42;;;;;;;-146.27;78.35;79861.94;5041840;28;20071;-68
2023/09/10 08:02:48;;;;;;;43.83;34.05;;;;;;;-146.27;78.24;79839.84;5048008;28;20116;-67
2023/09/10 08:05:13;;;;;;;44.33;34.15;;;;;;;-146.27;78.26;79809.72;5036640;28;20116;-69
2023/09/10 08:07:39;;;;;;;44.90;33.25;;;;;;;-146.27;78.47;79785.63;5039220;28;20488;-68
2023/09/10 08:10:05;;;;;;;42.00;32.72;;;;;;;-146.27;78.38;79715.38;5043398;28;20458;-68
2023/09/10 08:12:30;;;;;;;43.35;32.83;;;;;;;-146.27;78.24;79703.31;5041213;28;20030;-70
2023/09/10 08:14:55;;;;;;;40.55;26.48;;;;;;;-146.27;77.72;79643.09;5029433;28;20042;-73
2023/09/10 08:17:21;;;;;;;43.15;31.10;;;;;;;-146.27;77.73;79590.91;5037530;28;20112;-68
2023/09/10 08:19:46;;;;;;;40.03;31.73;;;;;;;-146.27;77.50;79576.88;5050618;28;20024;-68
2023/09/10 08:22:12;;;;;;;37.10;27.38;;;;;;;-146.27;77.47;79540.72;5053031;28;20032;-68
2023/09/10 08:24:37;;;;;;;33.13;24.20;;;;;;;-146.27;76.75;79438.34;5042127;28;20029;-69
2023/09/10 08:27:03;;;;;;;33.65;24.88;;;;;;;-146.27;76.33;79364.09;5051830;28;20029;-68
2023/09/10 08:29:29;;;;;;;34.60;28.83;;;;;;;-146.27;76.03;79344.00;5048374;28;20035;-69
2023/09/10 08:31:55;;;;;;;40.80;29.48;;;;;;;-146.27;75.66;79301.84;5045297;28;20436;-69
2023/09/10 08:34:21;;;;;;;40.40;29.83;;;;;;;-146.27;75.39;79231.59;5049988;28;20028;-68
2023/09/10 08:36:46;;;;;;;38.45;30.13;;;;;;;-146.27;75.27;79259.72;5043086;28;20025;-69
2023/09/10 08:39:11;;;;;;;40.13;30.23;;;;;;;-146.27;74.69;79119.19;5042993;28;20021;-69
2023/09/10 08:41:43;;;;;;;36.33;28.67;;;;;;;-146.27;74.60;79038.91;5042379;28;20036;-69
2023/09/10 08:44:10;;;;;;;30.50;24.30;;;;;;;-146.27;74.41;78972.69;5037835;28;20036;-69
2023/09/10 08:46:36;;;;;;;36.58;25.15;;;;;;;-146.27;74.15;78968.66;5037763;28;20086;-69
2023/09/10 08:49:03;;;;;;;41.58;27.73;;;;;;;-146.27;73.97;78856.28;5042954;28;20031;-68
2023/09/10 08:51:29;;;;;;;30.50;21.88;;;;;;;-146.27;73.69;78747.88;5046884;28;20047;-68
2023/09/10 08:54:01;;;;;;;35.53;28.35;;;;;;;-146.27;73.47;78701.72;5051217;28;20397;-68
2023/09/10 08:56:27;;;;;;;35.33;26.63;;;;;;;-146.27;72.92;78563.25;5033616;28;20083;-68
2023/09/10 08:58:54;;;;;;;33.47;25.27;;;;;;;-146.27;74.93;78870.31;5036337;28;20424;-68
2023/09/10 09:01:23;;;;;;;30.50;24.45;;;;;;;-146.27;75.04;78892.41;5033064;28;20036;-69
2023/09/10 09:03:49;;;;;;;33.70;25.33;;;;;;;-146.27;73.09;78468.94;5040676;28;20029;-69
2023/09/10 09:06:15;;;;;;;46.03;27.38;;;;;;;-146.27;71.91;78282.31;5039831;28;20108;-67
2023/09/10 09:08:47;;;;;;;38.08;25.67;;;;;;;-146.27;71.11;78171.94;5039846;28;20509;-68
2023/09/10 09:11:14;;;;;;;30.85;23.45;;;;;;;-146.27;71.08;78097.69;5045918;28;20048;-68
2023/09/10 09:13:48;;;;;;;37.50;24.80;;;;;;;-146.27;69.82;78047.53;5050623;28;20480;-67
2023/09/10 09:16:15;;;;;;;27.58;19.52;;;;;;;-146.27;70.11;77963.25;5040078;28;20047;-68
2023/09/10 09:18:41;;;;;;;34.28;23.25;;;;;;;-146.27;69.85;77862.91;5040502;28;20032;-68
2023/09/10 09:21:28;;;;;;;34.03;24.60;;;;;;;-146.27;70.95;77776.63;5052495;28;20404;-68
2023/09/10 09:24:01;;;;;;;28.30;23.08;;;;;;;-146.27;69.27;77754.56;5049355;28;20041;-68
2023/09/10 09:26:28;;;;;;;33.72;23.75;;;;;;;-146.27;68.73;77682.31;5040623;28;20123;-68
2023/09/10 09:28:57;;;;;;;30.33;22.27;;;;;;;-146.27;68.27;77567.97;5041932;28;20037;-68
2023/09/10 09:31:24;;;;;;;31.27;23.73;;;;;;;-146.27;69.29;77469.66;5041440;28;20691;-69
2023/09/10 09:33:49;;;;;;;27.48;21.95;;;;;;;-146.27;68.61;77349.28;5038253;28;21853;-67
2023/09/10 09:36:15;;;;;;;33.83;25.35;;;;;;;-146.27;68.29;77208.84;5040811;28;20029;-68
2023/09/10 09:38:42;;;;;;;30.63;24.33;;;;;;;-146.27;67.64;77120.56;5032228;28;20052;-67
2023/09/10 09:41:07;;;;;;;31.75;25.27;;;;;;;-146.27;65.37;77142.63;5046201;28;20025;-67
2023/09/10 09:43:36;;;;;;;27.05;19.73;;;;;;;-146.27;66.35;76976.13;5047832;28;20078;-68
2023/09/10 09:46:03;;;;;;;23.80;16.23;;;;;;;-146.27;66.06;76853.75;5046810;28;20028;-67
2023/09/10 09:48:29;;;;;;;26.17;17.05;;;;;;;-146.27;64.53;76779.53;5040296;28;20270;-68
2023/09/10 09:50:56;;;;;;;24.63;17.10;;;;;;;-146.27;63.48;76952.03;5041103;28;20032;-68
2023/09/10 09:53:32;;;;;;;23.67;16.70;;;;;;;-146.27;63.33;76647.13;5045341;28;20079;-68
2023/09/10 09:56:03;;;;;;;26.40;17.17;;;;;;;-146.27;61.20;76268.03;5063349;28;20059;-67
2023/09/10 09:58:29;;;;;;;21.90;16.40;;;;;;;-146.27;60.41;76093.53;5063713;28;20508;-67
2023/09/10 10:00:58;;;;;;;25.77;16.13;;;;;;;-146.27;60.79;76001.28;5045726;28;20021;-68
2023/09/10 10:03:24;;;;;;;22.35;14.93;;;;;;;-146.27;59.89;76029.34;5037107;28;20559;-68
2023/09/10 10:05:54;;;;;;;23.63;15.27;;;;;;;-146.27;59.41;75836.81;5034625;28;20025;-67
2023/09/10 10:08:26;;;;;;;26.50;15.55;;;;;;;-146.27;57.94;75905.00;5041559;28;20043;-67
2023/09/10 10:10:52;;;;;;;21.73;13.13;;;;;;;-146.27;58.29;75658.31;5044320;28;20029;-68
2023/09/10 10:13:22;;;;;;;14.40;10.57;;;;;;;-146.27;56.49;75515.94;5038937;28;20055;-67
2023/09/10 10:15:52;;;;;;;19.20;12.43;;;;;;;-146.27;56.58;75267.28;5041302;28;20091;-68
2023/09/10 10:18:20;;;;;;;19.52;11.60;;;;;;;-146.27;56.54;75094.84;5033155;28;20036;-69
2023/09/10 10:20:49;;;;;;;23.05;12.27;;;;;;;-146.27;54.08;74924.41;5054611;28;20041;-69
2023/09/10 10:23:15;;;;;;;16.67;12.13;;;;;;;-146.27;53.47;74874.28;5050813;28;20025;-69
2023/09/10 10:25:42;;;;;;;18.92;11.23;;;;;;;-146.27;53.85;74753.97;5056466;28;20037;-69
2023/09/10 10:28:09;;;;;;;17.48;11.10;;;;;;;-146.27;50.66;74798.09;5047864;28;20029;-69
2023/09/10 10:30:38;;;;;;;17.63;10.35;;;;;;;-146.27;52.78;74655.75;5038406;28;20433;-70
2023/09/10 10:33:07;;;;;;;14.27;10.18;;;;;;;-146.27;52.31;74766.00;5054410;28;20021;-70
2023/09/10 10:35:38;;;;;;;12.68;9.00;;;;;;;-146.27;52.39;74399.13;5034461;28;20559;-70
2023/09/10 10:38:06;;;;;;;17.17;10.10;;;;;;;-146.27;49.04;74635.69;5049322;28;20046;-70
2023/09/10 10:40:37;;;;;;;10.73;8.40;;;;;;;-146.27;51.18;74292.84;5044048;28;20029;-70
2023/09/10 10:43:12;;;;;;;15.50;8.38;;;;;;;-146.27;50.28;73948.06;5043066;28;20021;-69
2023/09/10 10:45:38;;;;;;;14.27;8.65;;;;;;;-146.27;48.47;73755.63;5050940;28;20104;-69
2023/09/10 10:48:11;;;;;;;12.18;7.25;;;;;;;-146.27;47.89;73503.06;5049100;28;20017;-69
2023/09/10 10:50:38;;;;;;;13.98;9.35;;;;;;;-146.27;47.83;73282.59;5034407;28;20044;-69
2023/09/10 10:53:15;;;;;;;10.52;7.68;;;;;;;-146.27;47.54;72961.94;5039991;28;20393;-69
2023/09/10 10:55:41;;;;;;;12.75;7.13;;;;;;;-146.27;46.66;72857.72;5050525;28;20037;-69
2023/09/10 10:58:06;;;;;;;9.68;6.25;;;;;;;-146.27;42.94;72821.63;5049708;28;20355;-69
2023/09/10 11:00:32;;;;;;;9.77;5.82;;;;;;;-146.27;43.99;72557.13;5030938;28;20029;-69